createdAt,value
2023-05-12T00:00:37.493Z,624.00
2023-05-12T00:01:37.539Z,626.00
2023-05-12T00:02:37.714Z,628.00
2023-05-12T00:03:37.771Z,620.00
2023-05-12T00:04:37.868Z,628.00
2023-05-12T00:05:37.958Z,626.00
2023-05-12T00:06:37.963Z,624.00
2023-05-12T00:07:38.049Z,626.00
2023-05-12T00:08:38.148Z,625.00
2023-05-12T00:09:38.222Z,633.00
2023-05-12T00:10:38.301Z,627.00
2023-05-12T00:11:38.450Z,627.00
2023-05-12T00:12:38.475Z,618.00
2023-05-12T00:13:38.601Z,616.00
2023-05-12T00:14:38.640Z,625.00
2023-05-12T00:15:38.758Z,623.00
2023-05-12T00:16:38.862Z,621.00
2023-05-12T00:17:38.931Z,617.00
2023-05-12T00:18:39.037Z,621.00
2023-05-12T00:19:39.090Z,617.00
2023-05-12T00:20:39.180Z,621.00
2023-05-12T00:21:39.274Z,624.00
2023-05-12T00:22:39.349Z,619.00
2023-05-12T00:23:39.445Z,619.00
2023-05-12T00:24:39.523Z,615.00
2023-05-12T00:25:39.609Z,618.00
2023-05-12T00:26:39.692Z,619.00
2023-05-12T00:27:39.772Z,615.00
2023-05-12T00:28:39.869Z,617.00
2023-05-12T00:29:39.915Z,619.00
2023-05-12T00:30:40.440Z,613.00
2023-05-12T00:31:40.101Z,616.00
2023-05-12T00:32:40.190Z,622.00
2023-05-12T00:33:40.227Z,619.00
2023-05-12T00:34:40.317Z,616.00
2023-05-12T00:35:40.413Z,618.00
2023-05-12T00:36:40.465Z,615.00
2023-05-12T00:37:40.559Z,617.00
2023-05-12T00:38:40.631Z,617.00
2023-05-12T00:39:40.704Z,614.00
2023-05-12T00:40:40.786Z,615.00
2023-05-12T00:41:40.864Z,613.00
2023-05-12T00:42:40.951Z,615.00
2023-05-12T00:43:41.047Z,618.00
2023-05-12T00:44:41.108Z,619.00
2023-05-12T00:45:41.284Z,620.00
2023-05-12T00:46:41.278Z,618.00
2023-05-12T00:47:41.465Z,613.00
2023-05-12T00:48:41.451Z,613.00
2023-05-12T00:49:41.532Z,614.00
2023-05-12T00:50:41.629Z,613.00
2023-05-12T00:51:41.735Z,611.00
2023-05-12T00:52:41.777Z,612.00
2023-05-12T00:53:49.742Z,615.00
2023-05-12T00:54:42.869Z,616.00
2023-05-12T00:55:41.894Z,617.00
2023-05-12T00:56:41.924Z,616.00
2023-05-12T00:57:41.935Z,615.00
2023-05-12T00:58:41.954Z,616.00
2023-05-12T00:59:41.970Z,613.00
2023-05-12T01:00:41.996Z,612.00
2023-05-12T01:01:42.063Z,608.00
2023-05-12T01:02:42.194Z,614.00
2023-05-12T01:03:42.225Z,611.00
2023-05-12T01:04:42.232Z,614.00
2023-05-12T01:05:42.406Z,605.00
2023-05-12T01:06:42.405Z,610.00
2023-05-12T01:07:42.490Z,607.00
2023-05-12T01:08:42.608Z,608.00
2023-05-12T01:09:42.669Z,612.00
2023-05-12T01:10:42.843Z,609.00
2023-05-12T01:11:43.460Z,606.00
2023-05-12T01:12:42.944Z,604.00
2023-05-12T01:13:43.007Z,608.00
2023-05-12T01:14:43.101Z,606.00
2023-05-12T01:15:43.195Z,612.00
2023-05-12T01:16:43.369Z,611.00
2023-05-12T01:17:43.452Z,605.00
2023-05-12T01:18:43.572Z,611.00
2023-05-12T01:19:43.544Z,607.00
2023-05-12T01:20:43.653Z,604.00
2023-05-12T01:21:43.743Z,608.00
2023-05-12T01:22:43.906Z,604.00
2023-05-12T01:23:44.462Z,609.00
2023-05-12T01:24:44.085Z,599.00
2023-05-12T01:25:44.111Z,603.00
2023-05-12T01:26:44.204Z,603.00
2023-05-12T01:27:44.286Z,599.00
2023-05-12T01:28:44.428Z,601.00
2023-05-12T01:29:44.462Z,603.00
2023-05-12T01:30:44.641Z,602.00
2023-05-12T01:31:44.778Z,603.00
2023-05-12T01:32:44.736Z,605.00
2023-05-12T01:33:44.816Z,608.00
2023-05-12T01:34:44.902Z,604.00
2023-05-12T01:35:44.986Z,607.00
2023-05-12T01:36:45.086Z,605.00
2023-05-12T01:37:45.171Z,601.00
2023-05-12T01:38:45.287Z,604.00
2023-05-12T01:39:45.351Z,598.00
2023-05-12T01:40:45.462Z,602.00
2023-05-12T01:41:45.528Z,602.00
2023-05-12T01:42:45.601Z,600.00
2023-05-12T01:43:45.695Z,604.00
2023-05-12T01:44:45.781Z,602.00
2023-05-12T01:45:45.880Z,599.00
2023-05-12T01:46:46.009Z,600.00
2023-05-12T01:47:46.066Z,598.00
2023-05-12T01:48:46.144Z,605.00
2023-05-12T01:49:46.227Z,595.00
2023-05-12T01:50:46.319Z,603.00
2023-05-12T01:51:46.437Z,603.00
2023-05-12T01:52:46.520Z,604.00
2023-05-12T01:53:46.596Z,605.00
2023-05-12T01:54:46.690Z,596.00
2023-05-12T01:55:46.779Z,601.00
2023-05-12T01:56:46.863Z,597.00
2023-05-12T01:57:46.975Z,595.00
2023-05-12T01:58:48.034Z,601.00
2023-05-12T01:59:47.128Z,600.00
2023-05-12T02:00:47.224Z,597.00
2023-05-12T02:01:47.424Z,601.00
2023-05-12T02:02:47.484Z,596.00
2023-05-12T02:03:47.611Z,595.00
2023-05-12T02:04:47.592Z,598.00
2023-05-12T02:05:47.688Z,593.00
2023-05-12T02:06:47.791Z,587.00
2023-05-12T02:07:47.865Z,595.00
2023-05-12T02:08:47.951Z,591.00
2023-05-12T02:09:48.056Z,591.00
2023-05-12T02:10:48.129Z,595.00
2023-05-12T02:11:48.231Z,593.00
2023-05-12T02:12:48.298Z,591.00
2023-05-12T02:13:48.404Z,592.00
2023-05-12T02:14:48.469Z,595.00
2023-05-12T02:15:48.545Z,592.00
2023-05-12T02:16:48.709Z,590.00
2023-05-12T02:17:48.688Z,598.00
2023-05-12T02:18:48.834Z,595.00
2023-05-12T02:19:48.988Z,587.00
2023-05-12T02:20:48.807Z,591.00
2023-05-12T02:21:48.896Z,593.00
2023-05-12T02:22:48.921Z,588.00
2023-05-12T02:23:48.984Z,589.00
2023-05-12T02:24:49.006Z,589.00
2023-05-12T02:25:49.049Z,592.00
2023-05-12T02:26:49.114Z,592.00
2023-05-12T02:27:49.186Z,587.00
2023-05-12T02:28:49.265Z,591.00
2023-05-12T02:29:49.356Z,586.00
2023-05-12T02:30:49.428Z,589.00
2023-05-12T02:31:49.545Z,588.00
2023-05-12T02:32:49.662Z,589.00
2023-05-12T02:33:49.693Z,590.00
2023-05-12T02:34:49.792Z,593.00
2023-05-12T02:35:49.888Z,592.00
2023-05-12T02:36:49.981Z,587.00
2023-05-12T02:37:50.033Z,587.00
2023-05-12T02:38:50.115Z,589.00
2023-05-12T02:39:50.171Z,584.00
2023-05-12T02:40:50.280Z,589.00
2023-05-12T02:41:50.350Z,587.00
2023-05-12T02:42:50.437Z,581.00
2023-05-12T02:43:50.578Z,581.00
2023-05-12T02:44:50.563Z,578.00
2023-05-12T02:45:50.702Z,590.00
2023-05-12T02:46:50.673Z,587.00
2023-05-12T02:47:50.773Z,588.00
2023-05-12T02:48:50.858Z,579.00
2023-05-12T02:49:50.852Z,583.00
2023-05-12T02:50:50.892Z,585.00
2023-05-12T02:51:50.937Z,584.00
2023-05-12T02:52:50.975Z,587.00
2023-05-12T02:53:51.009Z,584.00
2023-05-12T02:54:51.044Z,587.00
2023-05-12T02:55:51.081Z,587.00
2023-05-12T02:56:51.111Z,579.00
2023-05-12T02:57:51.162Z,580.00
2023-05-12T02:58:51.175Z,580.00
2023-05-12T02:59:51.194Z,579.00
2023-05-12T03:00:57.118Z,584.00
2023-05-12T03:01:52.282Z,584.00
2023-05-12T03:02:51.311Z,584.00
2023-05-12T03:03:51.355Z,586.00
2023-05-12T03:04:51.372Z,582.00
2023-05-12T03:05:51.333Z,579.00
2023-05-12T03:06:51.518Z,589.00
2023-05-12T03:07:51.376Z,584.00
2023-05-12T03:08:51.401Z,578.00
2023-05-12T03:09:51.410Z,582.00
2023-05-12T03:10:51.437Z,582.00
2023-05-12T03:11:51.465Z,585.00
2023-05-12T03:12:51.488Z,581.00
2023-05-12T03:13:51.521Z,573.00
2023-05-12T03:14:51.609Z,579.00
2023-05-12T03:15:51.614Z,577.00
2023-05-12T03:16:51.612Z,582.00
2023-05-12T03:17:51.618Z,582.00
2023-05-12T03:18:51.689Z,583.00
2023-05-12T03:19:51.657Z,581.00
2023-05-12T03:20:51.677Z,580.00
2023-05-12T03:21:51.709Z,580.00
2023-05-12T03:22:51.737Z,582.00
2023-05-12T03:23:51.766Z,578.00
2023-05-12T03:24:51.861Z,582.00
2023-05-12T03:25:51.798Z,577.00
2023-05-12T03:26:51.875Z,580.00
2023-05-12T03:27:51.912Z,577.00
2023-05-12T03:28:51.959Z,580.00
2023-05-12T03:29:52.016Z,578.00
2023-05-12T03:30:52.071Z,577.00
2023-05-12T03:31:52.154Z,580.00
2023-05-12T03:32:52.242Z,582.00
2023-05-12T03:33:53.015Z,578.00
2023-05-12T03:34:52.303Z,577.00
2023-05-12T03:35:52.354Z,576.00
2023-05-12T03:36:52.395Z,576.00
2023-05-12T03:37:52.431Z,579.00
2023-05-12T03:38:52.481Z,572.00
2023-05-12T03:39:52.530Z,577.00
2023-05-12T03:40:52.766Z,571.00
2023-05-12T03:41:52.631Z,581.00
2023-05-12T03:42:52.671Z,578.00
2023-05-12T03:43:52.736Z,574.00
2023-05-12T03:44:52.788Z,573.00
2023-05-12T03:45:52.836Z,571.00
2023-05-12T03:46:52.955Z,574.00
2023-05-12T03:47:52.928Z,574.00
2023-05-12T03:48:52.921Z,577.00
2023-05-12T03:49:52.958Z,575.00
2023-05-12T03:50:52.982Z,576.00
2023-05-12T03:51:53.018Z,572.00
2023-05-12T03:52:53.036Z,575.00
2023-05-12T03:53:53.057Z,576.00
2023-05-12T03:54:53.075Z,573.00
2023-05-12T03:55:53.119Z,571.00
2023-05-12T03:56:53.171Z,577.00
2023-05-12T03:57:53.213Z,575.00
2023-05-12T03:58:53.262Z,565.00
2023-05-12T03:59:53.311Z,573.00
2023-05-12T04:00:53.367Z,574.00
2023-05-12T04:01:53.536Z,569.00
2023-05-12T04:02:53.520Z,571.00
2023-05-12T04:03:53.589Z,568.00
2023-05-12T04:04:53.456Z,573.00
2023-05-12T04:05:53.494Z,572.00
2023-05-12T04:06:53.517Z,575.00
2023-05-12T04:07:53.582Z,571.00
2023-05-12T04:08:53.599Z,570.00
2023-05-12T04:09:53.652Z,574.00
2023-05-12T04:10:53.680Z,570.00
2023-05-12T04:11:53.804Z,571.00
2023-05-12T04:12:53.763Z,571.00
2023-05-12T04:13:53.817Z,568.00
2023-05-12T04:14:53.846Z,571.00
2023-05-12T04:15:53.880Z,568.00
2023-05-12T04:16:54.005Z,570.00
2023-05-12T04:17:54.014Z,568.00
2023-05-12T04:18:54.036Z,568.00
2023-05-12T04:19:54.120Z,570.00
2023-05-12T04:20:54.096Z,564.00
2023-05-12T04:21:54.131Z,563.00
2023-05-12T04:22:54.161Z,569.00
2023-05-12T04:23:54.187Z,566.00
2023-05-12T04:24:54.246Z,569.00
2023-05-12T04:25:54.271Z,564.00
2023-05-12T04:26:54.316Z,571.00
2023-05-12T04:27:55.032Z,567.00
2023-05-12T04:28:54.375Z,568.00
2023-05-12T04:29:54.400Z,565.00
2023-05-12T04:30:54.456Z,567.00
2023-05-12T04:31:54.620Z,565.00
2023-05-12T04:32:54.563Z,565.00
2023-05-12T04:33:54.553Z,567.00
2023-05-12T04:34:54.594Z,563.00
2023-05-12T04:35:55.541Z,566.00
2023-05-12T04:36:54.718Z,562.00
2023-05-12T04:37:54.678Z,564.00
2023-05-12T04:38:54.699Z,565.00
2023-05-12T04:39:54.729Z,562.00
2023-05-12T04:40:54.800Z,562.00
2023-05-12T04:41:54.794Z,558.00
2023-05-12T04:42:54.853Z,561.00
2023-05-12T04:44:54.876Z,564.00
2023-05-12T04:45:54.999Z,563.00
2023-05-12T04:46:54.935Z,563.00
2023-05-12T04:47:54.984Z,562.00
2023-05-12T04:48:54.978Z,567.00
2023-05-12T04:49:54.998Z,561.00
2023-05-12T04:50:55.014Z,559.00
2023-05-12T04:51:55.038Z,554.00
2023-05-12T04:52:55.058Z,562.00
2023-05-12T04:53:55.093Z,559.00
2023-05-12T04:54:55.104Z,559.00
2023-05-12T04:55:55.183Z,554.00
2023-05-12T04:56:55.144Z,563.00
2023-05-12T04:57:55.179Z,557.00
2023-05-12T04:58:56.049Z,556.00
2023-05-12T04:59:55.245Z,561.00
2023-05-12T05:00:55.292Z,561.00
2023-05-12T05:01:55.363Z,559.00
2023-05-12T05:02:56.113Z,555.00
2023-05-12T05:03:55.342Z,557.00
2023-05-12T05:04:55.336Z,559.00
2023-05-12T05:05:55.365Z,558.00
2023-05-12T05:06:55.378Z,554.00
2023-05-12T05:07:55.399Z,561.00
2023-05-12T05:08:55.434Z,555.00
2023-05-12T05:09:55.456Z,555.00
2023-05-12T05:10:55.530Z,558.00
2023-05-12T05:11:55.536Z,557.00
2023-05-12T05:12:55.528Z,557.00
2023-05-12T05:13:55.547Z,558.00
2023-05-12T05:14:55.565Z,553.00
2023-05-12T05:15:55.614Z,555.00
2023-05-12T05:16:55.619Z,554.00
2023-05-12T05:17:55.639Z,553.00
2023-05-12T05:18:55.691Z,552.00
2023-05-12T05:19:59.039Z,556.00
2023-05-12T05:21:55.738Z,556.00
2023-05-12T05:22:55.891Z,556.00
2023-05-12T05:23:55.844Z,561.00
2023-05-12T05:24:55.821Z,562.00
2023-05-12T05:25:55.843Z,566.00
2023-05-12T05:26:55.863Z,575.00
2023-05-12T05:27:55.884Z,575.00
2023-05-12T05:28:55.917Z,576.00
2023-05-12T05:29:56.063Z,594.00
2023-05-12T05:30:56.719Z,590.00
2023-05-12T05:31:56.040Z,593.00
2023-05-12T05:32:56.009Z,598.00
2023-05-12T05:33:56.044Z,601.00
2023-05-12T05:34:56.014Z,601.00
2023-05-12T05:35:56.029Z,617.00
2023-05-12T05:36:56.033Z,629.00
2023-05-12T05:37:56.072Z,640.00
2023-05-12T05:38:56.062Z,650.00
2023-05-12T05:39:56.072Z,663.00
2023-05-12T05:40:57.063Z,683.00
2023-05-12T05:41:56.093Z,749.00
2023-05-12T05:42:56.138Z,775.00
2023-05-12T05:43:57.065Z,830.00
2023-05-12T05:44:56.110Z,852.00
2023-05-12T05:45:56.117Z,897.00
2023-05-12T05:46:56.160Z,933.00
2023-05-12T05:47:56.194Z,975.00
2023-05-12T05:48:56.128Z,1009.00
2023-05-12T05:49:56.123Z,1058.00
2023-05-12T05:50:56.122Z,1077.00
2023-05-12T05:51:56.137Z,1113.00
2023-05-12T05:52:56.143Z,1125.00
2023-05-12T05:53:56.128Z,1152.00
2023-05-12T05:54:56.131Z,1196.00
2023-05-12T05:55:56.158Z,1243.00
2023-05-12T05:56:56.132Z,1278.00
2023-05-12T05:57:56.132Z,1305.00
2023-05-12T05:58:56.129Z,1340.00
2023-05-12T05:59:56.122Z,1365.00
2023-05-12T06:00:57.102Z,1393.00
2023-05-12T06:01:56.163Z,1416.00
2023-05-12T06:02:56.294Z,1439.00
2023-05-12T06:03:56.173Z,1455.00
2023-05-12T06:04:56.126Z,1479.00
2023-05-12T06:05:57.075Z,1492.00
2023-05-12T06:06:56.131Z,1539.00
2023-05-12T06:07:56.150Z,1542.00
2023-05-12T06:08:56.194Z,1579.00
2023-05-12T06:09:56.136Z,1606.00
2023-05-12T06:10:56.126Z,1626.00
2023-05-12T06:11:56.128Z,1681.00
2023-05-12T06:12:56.211Z,1702.00
2023-05-12T06:13:56.320Z,1711.00
2023-05-12T06:14:56.303Z,1748.00
2023-05-12T06:15:56.445Z,1766.00
2023-05-12T06:16:56.468Z,1815.00
2023-05-12T06:17:56.537Z,1832.00
2023-05-12T06:18:56.601Z,1849.00
2023-05-12T06:19:56.624Z,1879.00
2023-05-12T06:20:57.501Z,1908.00
2023-05-12T06:21:56.742Z,1883.00
2023-05-12T06:22:56.813Z,1788.00
2023-05-12T06:23:56.851Z,1666.00
2023-05-12T06:24:56.843Z,1592.00
2023-05-12T06:25:56.904Z,1459.00
2023-05-12T06:26:57.008Z,1480.00
2023-05-12T06:27:57.072Z,1450.00
2023-05-12T06:28:57.137Z,1397.00
2023-05-12T06:29:57.191Z,1428.00
2023-05-12T06:30:57.239Z,1433.00
2023-05-12T06:31:57.289Z,1425.00
2023-05-12T06:32:57.383Z,1429.00
2023-05-12T06:33:57.306Z,1432.00
2023-05-12T06:34:57.310Z,1433.00
2023-05-12T06:35:57.356Z,1452.00
2023-05-12T06:36:57.424Z,1478.00
2023-05-12T06:37:57.488Z,1491.00
2023-05-12T06:38:57.556Z,1500.00
2023-05-12T06:39:57.626Z,1506.00
2023-05-12T06:40:59.645Z,1508.00
2023-05-12T06:41:58.608Z,1513.00
2023-05-12T06:42:57.637Z,1532.00
2023-05-12T06:43:57.631Z,1573.00
2023-05-12T06:44:57.645Z,1627.00
2023-05-12T06:45:57.679Z,1656.00
2023-05-12T06:46:57.648Z,1652.00
2023-05-12T06:47:57.849Z,1670.00
2023-05-12T06:48:57.690Z,1677.00
2023-05-12T06:49:57.668Z,1696.00
2023-05-12T06:50:57.713Z,1725.00
2023-05-12T06:51:57.758Z,1721.00
2023-05-12T06:52:57.818Z,1761.00
2023-05-12T06:53:58.593Z,1778.00
2023-05-12T06:54:57.884Z,1799.00
2023-05-12T06:55:57.910Z,1809.00
2023-05-12T06:56:57.939Z,1806.00
2023-05-12T06:57:57.991Z,1833.00
2023-05-12T06:58:57.991Z,1840.00
2023-05-12T06:59:58.020Z,1860.00
2023-05-12T07:00:58.055Z,1876.00
2023-05-12T07:01:58.228Z,1906.00
2023-05-12T07:02:58.147Z,1912.00
2023-05-12T07:03:58.154Z,1925.00
2023-05-12T07:04:58.208Z,1965.00
2023-05-12T07:05:58.218Z,1964.00
2023-05-12T07:06:58.243Z,1983.00
2023-05-12T07:07:58.252Z,1983.00
2023-05-12T07:08:58.282Z,2015.00
2023-05-12T07:09:58.299Z,2031.00
2023-05-12T07:10:58.342Z,2053.00
2023-05-12T07:11:58.324Z,2082.00
2023-05-12T07:12:59.022Z,2091.00
2023-05-12T07:13:58.358Z,2110.00
2023-05-12T07:14:58.409Z,2138.00
2023-05-12T07:15:58.445Z,2159.00
2023-05-12T07:16:58.405Z,2194.00
2023-05-12T07:17:58.538Z,2170.00
2023-05-12T07:18:58.549Z,2173.00
2023-05-12T07:19:58.531Z,2040.00
2023-05-12T07:20:58.640Z,1727.00
2023-05-12T07:21:58.668Z,1753.00
2023-05-12T07:22:58.742Z,1790.00
2023-05-12T07:23:58.801Z,1783.00
2023-05-12T07:24:59.084Z,1782.00
2023-05-12T07:25:58.959Z,1768.00
2023-05-12T07:26:58.951Z,1747.00
2023-05-12T07:27:58.999Z,1759.00
2023-05-12T07:28:59.529Z,1793.00
2023-05-12T07:29:59.049Z,1809.00
2023-05-12T07:30:59.089Z,1811.00
2023-05-12T07:31:59.093Z,1828.00
2023-05-12T07:32:59.157Z,1844.00
2023-05-12T07:33:59.119Z,1849.00
2023-05-12T07:34:59.190Z,1871.00
2023-05-12T07:35:59.137Z,1879.00
2023-05-12T07:36:59.133Z,1899.00
2023-05-12T07:37:59.142Z,1910.00
2023-05-12T07:38:59.142Z,1947.00
2023-05-12T07:39:59.122Z,1972.00
2023-05-12T07:40:59.615Z,1972.00
2023-05-12T07:41:59.111Z,1988.00
2023-05-12T07:42:59.179Z,2008.00
2023-05-12T07:43:59.194Z,2028.00
2023-05-12T07:44:59.160Z,2037.00
2023-05-12T07:45:59.194Z,2057.00
2023-05-12T07:46:59.666Z,2089.00
2023-05-12T07:47:59.289Z,2120.00
2023-05-12T07:48:59.325Z,2141.00
2023-05-12T07:49:59.356Z,2165.00
2023-05-12T07:50:59.372Z,2188.00
2023-05-12T07:51:59.423Z,2202.00
2023-05-12T07:53:00.047Z,2224.00
2023-05-12T07:53:59.509Z,2249.00
2023-05-12T07:54:59.567Z,2232.00
2023-05-12T07:55:59.633Z,2256.00
2023-05-12T07:56:59.718Z,2278.00
2023-05-12T07:57:59.753Z,2293.00
2023-05-12T07:58:59.829Z,2318.00
2023-05-12T07:59:59.866Z,2332.00
2023-05-12T08:00:59.924Z,2326.00
2023-05-12T08:02:00.023Z,2338.00
2023-05-12T08:03:00.184Z,2349.00
2023-05-12T08:04:00.274Z,2371.00
2023-05-12T08:05:00.152Z,2363.00
2023-05-12T08:06:00.183Z,2377.00
2023-05-12T08:07:00.246Z,2366.00
2023-05-12T08:08:01.048Z,2372.00
2023-05-12T08:09:01.179Z,2385.00
2023-05-12T08:10:00.427Z,2402.00
2023-05-12T08:11:00.447Z,2404.00
2023-05-12T08:12:00.500Z,2457.00
2023-05-12T08:13:00.608Z,2421.00
2023-05-12T08:14:00.556Z,2425.00
2023-05-12T08:15:01.137Z,2378.00
2023-05-12T08:16:00.582Z,2364.00
2023-05-12T08:17:00.617Z,2278.00
2023-05-12T08:18:00.622Z,2166.00
2023-05-12T08:19:00.618Z,2125.00
2023-05-12T08:20:00.630Z,2153.00
2023-05-12T08:21:00.635Z,2121.00
2023-05-12T08:22:00.651Z,2068.00
2023-05-12T08:23:00.659Z,2013.00
2023-05-12T08:24:01.129Z,2049.00
2023-05-12T08:25:00.839Z,2044.00
2023-05-12T08:26:00.696Z,2019.00
2023-05-12T08:27:01.746Z,1995.00
2023-05-12T08:28:00.807Z,1983.00
2023-05-12T08:29:00.726Z,1972.00
2023-05-12T08:30:01.117Z,1960.00
2023-05-12T08:31:02.672Z,1952.00
2023-05-12T08:32:00.830Z,1964.00
2023-05-12T08:33:00.762Z,1935.00
2023-05-12T08:34:09.658Z,1923.00
2023-05-12T08:35:01.722Z,1924.00
2023-05-12T08:36:01.643Z,1926.00
2023-05-12T08:37:00.718Z,1918.00
2023-05-12T08:38:00.722Z,1926.00
2023-05-12T08:39:00.737Z,1906.00
2023-05-12T08:40:00.718Z,1902.00
2023-05-12T08:41:00.737Z,1913.00
2023-05-12T08:42:00.737Z,1883.00
2023-05-12T08:43:01.930Z,1883.00
2023-05-12T08:44:01.643Z,1879.00
2023-05-12T08:45:01.193Z,1881.00
2023-05-12T08:46:00.826Z,1869.00
2023-05-12T08:47:00.898Z,1867.00
2023-05-12T08:48:00.756Z,1857.00
2023-05-12T08:49:00.704Z,1855.00
2023-05-12T08:50:00.703Z,1857.00
2023-05-12T08:51:00.746Z,1847.00
2023-05-12T08:52:00.782Z,1844.00
2023-05-12T08:53:00.829Z,1831.00
2023-05-12T08:54:01.637Z,1850.00
2023-05-12T08:55:01.746Z,1834.00
2023-05-12T08:58:00.876Z,1837.00
2023-05-12T08:59:00.892Z,1839.00
2023-05-12T09:00:01.641Z,1841.00
2023-05-12T09:01:00.883Z,1849.00
2023-05-12T09:02:00.919Z,1846.00
2023-05-12T09:03:00.894Z,1835.00
2023-05-12T09:04:00.874Z,1837.00
2023-05-12T09:05:00.875Z,1824.00
2023-05-12T09:06:00.856Z,1822.00
2023-05-12T09:07:01.673Z,1809.00
2023-05-12T09:08:01.647Z,1818.00
2023-05-12T09:09:00.879Z,1814.00
2023-05-12T09:10:00.876Z,1803.00
2023-05-12T09:11:00.945Z,1794.00
2023-05-12T09:12:00.830Z,1798.00
2023-05-12T09:13:00.977Z,1779.00
2023-05-12T09:14:00.840Z,1774.00
2023-05-12T09:15:01.647Z,1769.00
2023-05-12T09:16:00.889Z,1775.00
2023-05-12T09:17:00.815Z,1774.00
2023-05-12T09:18:00.864Z,1764.00
2023-05-12T09:19:01.633Z,1765.00
2023-05-12T09:20:00.829Z,1753.00
2023-05-12T09:21:01.574Z,1744.00
2023-05-12T09:22:00.875Z,1734.00
2023-05-12T09:23:00.808Z,1705.00
2023-05-12T09:24:00.802Z,1713.00
2023-05-12T09:25:01.679Z,1698.00
2023-05-12T09:26:00.799Z,1667.00
2023-05-12T09:27:00.770Z,1634.00
2023-05-12T09:28:00.801Z,1641.00
2023-05-12T09:29:00.949Z,1559.00
2023-05-12T09:30:01.183Z,1531.00
2023-05-12T09:31:00.966Z,1465.00
2023-05-12T09:32:01.041Z,1438.00
2023-05-12T09:33:01.113Z,1317.00
2023-05-12T09:34:01.116Z,1322.00
2023-05-12T09:35:01.171Z,1287.00
2023-05-12T09:36:01.224Z,1240.00
2023-05-12T09:37:01.310Z,1205.00
2023-05-12T09:38:01.336Z,1162.00
2023-05-12T09:39:01.450Z,1134.00
2023-05-12T09:40:01.443Z,1101.00
2023-05-12T09:41:01.492Z,982.00
2023-05-12T09:42:01.541Z,956.00
2023-05-12T09:43:01.603Z,916.00
2023-05-12T09:44:01.660Z,904.00
2023-05-12T09:45:01.732Z,900.00
2023-05-12T09:46:01.778Z,882.00
2023-05-12T09:47:01.855Z,798.00
2023-05-12T09:48:01.973Z,811.00
2023-05-12T09:49:01.948Z,737.00
2023-05-12T09:50:02.038Z,625.00
2023-05-12T09:51:02.040Z,526.00
2023-05-12T09:52:02.058Z,494.00
2023-05-12T09:53:02.069Z,479.00
2023-05-12T09:54:02.173Z,445.00
2023-05-12T09:55:02.101Z,461.00
2023-05-12T09:56:02.678Z,508.00
2023-05-12T09:57:02.158Z,467.00
2023-05-12T09:58:02.170Z,438.00
2023-05-12T09:59:02.206Z,469.00
2023-05-12T10:00:02.250Z,478.00
2023-05-12T10:02:04.156Z,448.00
2023-05-12T10:03:02.351Z,416.00
2023-05-12T10:04:02.315Z,400.00
2023-05-12T10:05:02.434Z,400.00
2023-05-12T10:06:02.334Z,400.00
2023-05-12T10:07:02.345Z,419.00
2023-05-12T10:08:02.355Z,455.00
2023-05-12T10:09:02.351Z,500.00
2023-05-12T10:10:02.404Z,500.00
2023-05-12T10:11:02.436Z,500.00
2023-05-12T10:12:02.404Z,522.00
2023-05-12T10:13:02.444Z,530.00
2023-05-12T10:14:02.444Z,607.00
2023-05-12T10:15:02.679Z,632.00
2023-05-12T10:16:02.436Z,626.00
2023-05-12T10:17:02.701Z,734.00
2023-05-12T10:18:02.523Z,773.00
2023-05-12T10:19:03.143Z,757.00
2023-05-12T10:20:03.177Z,755.00
2023-05-12T10:21:02.458Z,770.00
2023-05-12T10:22:03.207Z,772.00
2023-05-12T10:23:02.452Z,815.00
2023-05-12T10:24:02.517Z,853.00
2023-05-12T10:25:02.547Z,866.00
2023-05-12T10:26:02.575Z,925.00
2023-05-12T10:27:02.582Z,955.00
2023-05-12T10:28:02.582Z,1016.00
2023-05-12T10:29:02.595Z,1058.00
2023-05-12T10:30:02.617Z,1093.00
2023-05-12T10:31:02.695Z,1163.00
2023-05-12T10:32:02.624Z,1226.00
2023-05-12T10:33:03.432Z,1280.00
2023-05-12T10:34:02.558Z,1318.00
2023-05-12T10:35:02.565Z,1367.00
2023-05-12T10:36:02.585Z,1421.00
2023-05-12T10:37:02.624Z,1453.00
2023-05-12T10:38:02.656Z,1494.00
2023-05-12T10:39:02.789Z,1539.00
2023-05-12T10:40:02.774Z,1645.00
2023-05-12T10:41:02.765Z,1670.00
2023-05-12T10:42:03.687Z,1703.00
2023-05-12T10:43:02.849Z,1743.00
2023-05-12T10:44:02.902Z,1771.00
2023-05-12T10:45:02.925Z,1809.00
2023-05-12T10:46:03.026Z,1834.00
2023-05-12T10:47:03.708Z,1869.00
2023-05-12T10:48:03.690Z,1918.00
2023-05-12T10:49:03.112Z,1946.00
2023-05-12T10:50:03.121Z,1983.00
2023-05-12T10:51:03.147Z,2025.00
2023-05-12T10:52:03.167Z,2093.00
2023-05-12T10:53:03.221Z,2131.00
2023-05-12T10:54:03.232Z,2124.00
2023-05-12T10:55:03.420Z,2141.00
2023-05-12T10:56:03.467Z,2200.00
2023-05-12T10:57:03.619Z,2224.00
2023-05-12T10:58:03.591Z,2260.00
2023-05-12T10:59:03.617Z,2281.00
2023-05-12T11:00:04.254Z,2299.00
2023-05-12T11:01:03.988Z,2315.00
2023-05-12T11:02:05.206Z,2317.00
2023-05-12T11:03:09.710Z,2311.00
2023-05-12T11:04:04.677Z,2312.00
2023-05-12T11:05:04.398Z,2319.00
2023-05-12T11:06:04.748Z,2325.00
2023-05-12T11:07:04.502Z,2336.00
2023-05-12T11:08:04.783Z,2343.00
2023-05-12T11:09:04.894Z,2348.00
2023-05-12T11:10:04.717Z,2346.00
2023-05-12T11:11:06.241Z,2347.00
2023-05-12T11:12:04.745Z,2350.00
2023-05-12T11:13:03.421Z,2359.00
2023-05-12T11:14:03.429Z,2363.00
2023-05-12T11:15:03.468Z,2363.00
2023-05-12T11:16:03.449Z,2353.00
2023-05-12T11:17:03.378Z,2363.00
2023-05-12T11:18:03.465Z,2363.00
2023-05-12T11:19:03.426Z,2359.00
2023-05-12T11:20:04.219Z,2343.00
2023-05-12T11:21:03.331Z,2351.00
2023-05-12T11:22:03.320Z,2350.00
2023-05-12T11:23:03.304Z,2343.00
2023-05-12T11:24:03.312Z,2335.00
2023-05-12T11:25:03.291Z,2334.00
2023-05-12T11:26:03.332Z,2336.00
2023-05-12T11:27:03.263Z,2340.00
2023-05-12T11:28:03.252Z,2332.00
2023-05-12T11:29:03.256Z,2326.00
2023-05-12T11:30:03.229Z,2336.00
2023-05-12T11:31:03.226Z,2326.00
2023-05-12T11:32:03.250Z,2329.00
2023-05-12T11:33:03.477Z,2325.00
2023-05-12T11:34:11.347Z,2324.00
2023-05-12T11:35:04.165Z,2325.00
2023-05-12T11:36:03.167Z,2326.00
2023-05-12T11:37:03.154Z,2328.00
2023-05-12T11:38:03.131Z,2326.00
2023-05-12T11:39:03.097Z,2320.00
2023-05-12T11:40:03.089Z,2324.00
2023-05-12T11:41:03.077Z,2309.00
2023-05-12T11:43:03.187Z,2316.00
2023-05-12T11:44:03.188Z,2308.00
2023-05-12T11:45:03.182Z,2300.00
2023-05-12T11:46:03.169Z,2309.00
2023-05-12T11:47:03.157Z,2307.00
2023-05-12T11:48:03.191Z,2298.00
2023-05-12T11:49:03.153Z,2289.00
2023-05-12T11:50:03.164Z,2295.00
2023-05-12T11:51:03.149Z,2300.00
2023-05-12T11:52:03.123Z,2302.00
2023-05-12T11:53:03.176Z,2290.00
2023-05-12T11:54:03.113Z,2280.00
2023-05-12T11:55:03.127Z,2302.00
2023-05-12T11:56:03.110Z,2279.00
2023-05-12T11:57:03.100Z,2272.00
2023-05-12T11:58:03.245Z,2280.00
2023-05-12T11:59:03.095Z,2272.00
2023-05-12T12:00:03.126Z,2276.00
2023-05-12T12:01:03.090Z,2275.00
2023-05-12T12:02:03.107Z,2270.00
2023-05-12T12:03:03.167Z,2277.00
2023-05-12T12:04:03.180Z,2271.00
2023-05-12T12:05:03.076Z,2263.00
2023-05-12T12:06:03.726Z,2267.00
2023-05-12T12:07:03.101Z,2257.00
2023-05-12T12:08:03.089Z,2258.00
2023-05-12T12:09:03.132Z,2257.00
2023-05-12T12:10:03.113Z,2244.00
2023-05-12T12:11:03.940Z,2251.00
2023-05-12T12:12:03.173Z,2253.00
2023-05-12T12:13:03.168Z,2248.00
2023-05-12T12:14:03.161Z,2241.00
2023-05-12T12:15:03.160Z,2239.00
2023-05-12T12:16:03.220Z,2246.00
2023-05-12T12:17:03.194Z,2238.00
2023-05-12T12:18:03.250Z,2234.00
2023-05-12T12:19:03.244Z,2235.00
2023-05-12T12:20:03.232Z,2230.00
2023-05-12T12:21:03.245Z,2234.00
2023-05-12T12:22:03.255Z,2226.00
2023-05-12T12:23:03.273Z,2227.00
2023-05-12T12:24:03.282Z,2221.00